Time;durP1;ratioP1;P1;durP2;ratioP2;P2;SDS_P1;SDS_P2;PMS_P1;PMS_P2;Temp;Humidity;BMP_temperature;BMP_pressure;BME280_temperature;BME280_humidity;BME280_pressure;Samples;Min_cycle;Max_cycle;Signal;HPM_P1;HPM_P2
2020/12/09 00:01:02;;;;;;;13.17;11.2;;;5.5;99.9;;;;;;;;;
2020/12/09 00:02:02;;;;;;;16.57;11.4;;;5.4;99.9;;;;;;;;;
2020/12/09 00:03:02;;;;;;;12.9;11;;;5.5;99.9;;;;;;;;;
2020/12/09 00:03:12;;;;;;;12.9;11;;;5.5;99.9;;;;;;;;;
2020/12/09 00:04:02;;;;;;;12.47;10.43;;;5.5;99.9;;;;;;;;;
2020/12/09 00:04:19;;;;;;;12.47;10.43;;;5.5;99.9;;;;;;;;;
2020/12/09 00:05:02;;;;;;;13.4;11.13;;;5.6;99.9;;;;;;;;;
2020/12/09 00:05:15;;;;;;;13.4;11.13;;;5.6;99.9;;;;;;;;;
2020/12/09 00:05:25;;;;;;;13.4;11.13;;;5.6;99.9;;;;;;;;;
2020/12/09 00:06:02;;;;;;;14.37;12.37;;;5.6;99.9;;;;;;;;;
2020/12/09 00:06:16;;;;;;;14.37;12.37;;;5.6;99.9;;;;;;;;;
2020/12/09 00:06:32;;;;;;;14.67;11.63;;;5.7;99.9;;;;;;;;;
2020/12/09 00:07:02;;;;;;;14.67;11.63;;;5.7;99.9;;;;;;;;;
2020/12/09 00:07:13;;;;;;;14.67;11.63;;;5.7;99.9;;;;;;;;;
2020/12/09 00:07:28;;;;;;;14.67;11.63;;;5.7;99.9;;;;;;;;;
2020/12/09 00:07:38;;;;;;;14.43;12.3;;;5.7;99.9;;;;;;;;;
2020/12/09 00:08:02;;;;;;;14.43;12.3;;;5.7;99.9;;;;;;;;;
2020/12/09 00:08:14;;;;;;;14.43;12.3;;;5.7;99.9;;;;;;;;;
2020/12/09 00:08:30;;;;;;;14.43;12.3;;;5.7;99.9;;;;;;;;;
2020/12/09 00:08:45;;;;;;;16.4;11.47;;;5.6;99.9;;;;;;;;;
2020/12/09 00:09:02;;;;;;;16.4;11.47;;;5.6;99.9;;;;;;;;;
2020/12/09 00:09:16;;;;;;;16.4;11.47;;;5.6;99.9;;;;;;;;;
2020/12/09 00:09:26;;;;;;;16.4;11.47;;;5.6;99.9;;;;;;;;;
2020/12/09 00:09:41;;;;;;;15.77;12.23;;;5.6;99.9;;;;;;;;;
2020/12/09 00:09:52;;;;;;;15.77;12.23;;;5.6;99.9;;;;;;;;;
2020/12/09 00:10:02;;;;;;;15.77;12.23;;;5.6;99.9;;;;;;;;;
2020/12/09 00:10:17;;;;;;;15.77;12.23;;;5.6;99.9;;;;;;;;;
2020/12/09 00:10:27;;;;;;;15.77;12.23;;;5.6;99.9;;;;;;;;;
2020/12/09 00:10:43;;;;;;;14.87;12.17;;;5.5;99.9;;;;;;;;;
2020/12/09 00:10:58;;;;;;;14.87;12.17;;;5.5;99.9;;;;;;;;;
2020/12/09 00:11:02;;;;;;;14.87;12.17;;;5.5;99.9;;;;;;;;;
2020/12/09 00:11:13;;;;;;;14.87;12.17;;;5.5;99.9;;;;;;;;;
2020/12/09 00:11:29;;;;;;;14.87;12.17;;;5.5;99.9;;;;;;;;;
2020/12/09 00:11:39;;;;;;;15.57;11.93;;;5.5;99.9;;;;;;;;;
2020/12/09 00:11:54;;;;;;;15.57;11.93;;;5.5;99.9;;;;;;;;;
2020/12/09 00:12:02;;;;;;;15.57;11.93;;;5.5;99.9;;;;;;;;;
2020/12/09 00:12:05;;;;;;;15.57;11.93;;;5.5;99.9;;;;;;;;;
2020/12/09 00:12:15;;;;;;;15.57;11.93;;;5.5;99.9;;;;;;;;;
2020/12/09 00:12:31;;;;;;;15.57;11.93;;;5.5;99.9;;;;;;;;;
2020/12/09 00:12:40;;;;;;;13.23;11.47;;;5.4;99.9;;;;;;;;;
2020/12/09 00:12:56;;;;;;;13.23;11.47;;;5.4;99.9;;;;;;;;;
2020/12/09 00:13:02;;;;;;;13.23;11.47;;;5.4;99.9;;;;;;;;;
2020/12/09 00:13:11;;;;;;;13.23;11.47;;;5.4;99.9;;;;;;;;;
2020/12/09 00:13:16;;;;;;;13.23;11.47;;;5.4;99.9;;;;;;;;;
2020/12/09 00:13:26;;;;;;;13.23;11.47;;;5.4;99.9;;;;;;;;;
2020/12/09 00:13:43;;;;;;;12.57;10.8;;;5.2;99.9;;;;;;;;;
2020/12/09 00:13:52;;;;;;;12.57;10.8;;;5.2;99.9;;;;;;;;;
2020/12/09 00:14:02;;;;;;;12.57;10.8;;;5.2;99.9;;;;;;;;;
2020/12/09 00:14:07;;;;;;;12.57;10.8;;;5.2;99.9;;;;;;;;;
2020/12/09 00:14:13;;;;;;;12.57;10.8;;;5.2;99.9;;;;;;;;;
2020/12/09 00:14:28;;;;;;;12.57;10.8;;;5.2;99.9;;;;;;;;;
2020/12/09 00:14:44;;;;;;;12.9;11.37;;;5.1;99.9;;;;;;;;;
2020/12/09 00:14:55;;;;;;;12.9;11.37;;;5.1;99.9;;;;;;;;;
2020/12/09 00:15:01;;;;;;;12.9;11.37;;;5.1;99.9;;;;;;;;;
2020/12/09 00:15:09;;;;;;;12.9;11.37;;;5.1;99.9;;;;;;;;;
2020/12/09 00:15:14;;;;;;;12.9;11.37;;;5.1;99.9;;;;;;;;;
2020/12/09 00:15:29;;;;;;;12.9;11.37;;;5.1;99.9;;;;;;;;;
2020/12/09 00:15:40;;;;;;;13.8;11;;;5.1;99.9;;;;;;;;;
2020/12/09 00:16:00;;;;;;;13.8;11;;;5.1;99.9;;;;;;;;;
2020/12/09 00:16:02;;;;;;;13.8;11;;;5.1;99.9;;;;;;;;;
2020/12/09 00:16:05;;;;;;;13.8;11;;;5.1;99.9;;;;;;;;;
2020/12/09 00:16:15;;;;;;;13.8;11;;;5.1;99.9;;;;;;;;;
2020/12/09 00:16:26;;;;;;;13.8;11;;;5.1;99.9;;;;;;;;;
2020/12/09 00:16:41;;;;;;;14.1;12.03;;;5.1;99.9;;;;;;;;;
2020/12/09 00:16:56;;;;;;;14.1;12.03;;;5.1;99.9;;;;;;;;;
2020/12/09 00:17:02;;;;;;;14.1;12.03;;;5.1;99.9;;;;;;;;;
2020/12/09 00:17:07;;;;;;;14.1;12.03;;;5.1;99.9;;;;;;;;;
2020/12/09 00:17:17;;;;;;;14.1;12.03;;;5.1;99.9;;;;;;;;;
2020/12/09 00:17:27;;;;;;;14.1;12.03;;;5.1;99.9;;;;;;;;;
2020/12/09 00:17:43;;;;;;;12.97;10.87;;;5.1;99.9;;;;;;;;;
2020/12/09 00:17:53;;;;;;;12.97;10.87;;;5.1;99.9;;;;;;;;;
2020/12/09 00:18:02;;;;;;;12.97;10.87;;;5.1;99.9;;;;;;;;;
2020/12/09 00:18:13;;;;;;;12.97;10.87;;;5.1;99.9;;;;;;;;;
2020/12/09 00:18:13;;;;;;;12.97;10.87;;;5.1;99.9;;;;;;;;;
2020/12/09 00:18:29;;;;;;;12.97;10.87;;;5.1;99.9;;;;;;;;;
2020/12/09 00:18:39;;;;;;;13.67;11.53;;;5.2;99.9;;;;;;;;;
2020/12/09 00:18:54;;;;;;;13.67;11.53;;;5.2;99.9;;;;;;;;;
2020/12/09 00:19:03;;;;;;;13.67;11.53;;;5.2;99.9;;;;;;;;;
2020/12/09 00:19:10;;;;;;;13.67;11.53;;;5.2;99.9;;;;;;;;;
2020/12/09 00:19:15;;;;;;;13.67;11.53;;;5.2;99.9;;;;;;;;;
2020/12/09 00:19:30;;;;;;;13.67;11.53;;;5.2;99.9;;;;;;;;;
2020/12/09 00:19:40;;;;;;;13.4;11.33;;;5.2;99.9;;;;;;;;;
2020/12/09 00:19:56;;;;;;;13.4;11.33;;;5.2;99.9;;;;;;;;;
2020/12/09 00:20:01;;;;;;;13.4;11.33;;;5.2;99.9;;;;;;;;;
2020/12/09 00:20:06;;;;;;;13.4;11.33;;;5.2;99.9;;;;;;;;;
2020/12/09 00:20:16;;;;;;;13.4;11.33;;;5.2;99.9;;;;;;;;;
2020/12/09 00:20:26;;;;;;;13.4;11.33;;;5.2;99.9;;;;;;;;;
2020/12/09 00:20:42;;;;;;;15.53;10.9;;;5.1;99.9;;;;;;;;;
2020/12/09 00:20:52;;;;;;;15.53;10.9;;;5.1;99.9;;;;;;;;;
2020/12/09 00:21:02;;;;;;;15.53;10.9;;;5.1;99.9;;;;;;;;;
2020/12/09 00:21:07;;;;;;;15.53;10.9;;;5.1;99.9;;;;;;;;;
2020/12/09 00:21:18;;;;;;;15.53;10.9;;;5.1;99.9;;;;;;;;;
2020/12/09 00:21:28;;;;;;;15.53;10.9;;;5.1;99.9;;;;;;;;;
2020/12/09 00:21:43;;;;;;;13;10.87;;;5.1;99.9;;;;;;;;;
2020/12/09 00:21:53;;;;;;;13;10.87;;;5.1;99.9;;;;;;;;;
2020/12/09 00:22:04;;;;;;;13;10.87;;;5.1;99.9;;;;;;;;;
2020/12/09 00:22:09;;;;;;;13;10.87;;;5.1;99.9;;;;;;;;;
2020/12/09 00:22:19;;;;;;;13;10.87;;;5.1;99.9;;;;;;;;;
2020/12/09 00:22:29;;;;;;;13;10.87;;;5.1;99.9;;;;;;;;;
2020/12/09 00:22:40;;;;;;;13.8;11.7;;;5.1;99.9;;;;;;;;;
2020/12/09 00:22:55;;;;;;;13.8;11.7;;;5.1;99.9;;;;;;;;;
2020/12/09 00:23:02;;;;;;;13.8;11.7;;;5.1;99.9;;;;;;;;;
2020/12/09 00:23:05;;;;;;;13.8;11.7;;;5.1;99.9;;;;;;;;;
2020/12/09 00:23:16;;;;;;;13.8;11.7;;;5.1;99.9;;;;;;;;;
2020/12/09 00:23:31;;;;;;;13.8;11.7;;;5.1;99.9;;;;;;;;;
2020/12/09 00:23:41;;;;;;;13.6;12.17;;;5.1;99.9;;;;;;;;;
2020/12/09 00:23:56;;;;;;;13.6;12.17;;;5.1;99.9;;;;;;;;;
2020/12/09 00:24:02;;;;;;;13.6;12.17;;;5.1;99.9;;;;;;;;;
2020/12/09 00:24:07;;;;;;;13.6;12.17;;;5.1;99.9;;;;;;;;;
2020/12/09 00:24:17;;;;;;;13.6;12.17;;;5.1;99.9;;;;;;;;;
2020/12/09 00:24:32;;;;;;;13.6;12.17;;;5.1;99.9;;;;;;;;;
2020/12/09 00:24:42;;;;;;;12.3;10.97;;;5;99.9;;;;;;;;;
2020/12/09 00:24:53;;;;;;;12.3;10.97;;;5;99.9;;;;;;;;;
2020/12/09 00:25:01;;;;;;;12.3;10.97;;;5;99.9;;;;;;;;;
2020/12/09 00:25:08;;;;;;;12.3;10.97;;;5;99.9;;;;;;;;;
2020/12/09 00:25:13;;;;;;;12.3;10.97;;;5;99.9;;;;;;;;;
2020/12/09 00:25:34;;;;;;;12.3;10.97;;;5;99.9;;;;;;;;;
2020/12/09 00:25:44;;;;;;;13.17;11.27;;;5;99.9;;;;;;;;;
2020/12/09 00:25:54;;;;;;;13.17;11.27;;;5;99.9;;;;;;;;;
2020/12/09 00:26:02;;;;;;;13.17;11.27;;;5;99.9;;;;;;;;;
2020/12/09 00:26:09;;;;;;;13.17;11.27;;;5;99.9;;;;;;;;;
2020/12/09 00:26:15;;;;;;;13.17;11.27;;;5;99.9;;;;;;;;;
2020/12/09 00:26:30;;;;;;;13.17;11.27;;;5;99.9;;;;;;;;;
2020/12/09 00:26:45;;;;;;;14.67;11.43;;;5;99.9;;;;;;;;;
2020/12/09 00:26:56;;;;;;;14.67;11.43;;;5;99.9;;;;;;;;;
2020/12/09 00:27:02;;;;;;;14.67;11.43;;;5;99.9;;;;;;;;;
2020/12/09 00:27:06;;;;;;;14.67;11.43;;;5;99.9;;;;;;;;;
2020/12/09 00:27:16;;;;;;;14.67;11.43;;;5;99.9;;;;;;;;;
2020/12/09 00:27:26;;;;;;;14.67;11.43;;;5;99.9;;;;;;;;;
2020/12/09 00:27:47;;;;;;;11.83;10.33;;;5;99.9;;;;;;;;;
2020/12/09 00:27:57;;;;;;;11.83;10.33;;;5;99.9;;;;;;;;;
2020/12/09 00:28:02;;;;;;;11.83;10.33;;;5;99.9;;;;;;;;;
2020/12/09 00:28:09;;;;;;;11.83;10.33;;;5;99.9;;;;;;;;;
2020/12/09 00:28:12;;;;;;;11.83;10.33;;;5;99.9;;;;;;;;;
2020/12/09 00:28:28;;;;;;;11.83;10.33;;;5;99.9;;;;;;;;;
2020/12/09 00:28:43;;;;;;;14.4;11.27;;;5;99.9;;;;;;;;;
2020/12/09 00:28:59;;;;;;;14.4;11.27;;;5;99.9;;;;;;;;;
2020/12/09 00:29:02;;;;;;;14.4;11.27;;;5;99.9;;;;;;;;;
2020/12/09 00:29:09;;;;;;;14.4;11.27;;;5;99.9;;;;;;;;;
2020/12/09 00:29:14;;;;;;;14.4;11.27;;;5;99.9;;;;;;;;;
2020/12/09 00:29:29;;;;;;;14.4;11.27;;;5;99.9;;;;;;;;;
2020/12/09 00:29:39;;;;;;;13.2;10.6;;;5;99.9;;;;;;;;;
2020/12/09 00:30:02;;;;;;;13.2;10.6;;;5;99.9;;;;;;;;;
2020/12/09 00:30:02;;;;;;;13.2;10.6;;;5;99.9;;;;;;;;;
2020/12/09 00:30:10;;;;;;;13.2;10.6;;;5;99.9;;;;;;;;;
2020/12/09 00:30:15;;;;;;;13.2;10.6;;;5;99.9;;;;;;;;;
2020/12/09 00:30:25;;;;;;;13.2;10.6;;;5;99.9;;;;;;;;;
2020/12/09 00:30:41;;;;;;;16.03;11.5;;;5;99.9;;;;;;;;;
2020/12/09 00:30:56;;;;;;;16.03;11.5;;;5;99.9;;;;;;;;;
2020/12/09 00:31:02;;;;;;;16.03;11.5;;;5;99.9;;;;;;;;;
2020/12/09 00:31:12;;;;;;;16.03;11.5;;;5;99.9;;;;;;;;;
2020/12/09 00:31:19;;;;;;;16.03;11.5;;;5;99.9;;;;;;;;;
2020/12/09 00:31:30;;;;;;;16.03;11.5;;;5;99.9;;;;;;;;;
2020/12/09 00:31:42;;;;;;;13.6;11.63;;;5;99.9;;;;;;;;;
2020/12/09 00:31:53;;;;;;;13.6;11.63;;;5;99.9;;;;;;;;;
2020/12/09 00:32:01;;;;;;;13.6;11.63;;;5;99.9;;;;;;;;;
2020/12/09 00:32:13;;;;;;;13.6;11.63;;;5;99.9;;;;;;;;;
2020/12/09 00:32:13;;;;;;;13.6;11.63;;;5;99.9;;;;;;;;;
2020/12/09 00:32:28;;;;;;;13.6;11.63;;;5;99.9;;;;;;;;;
2020/12/09 00:32:39;;;;;;;12.6;11.3;;;5;99.9;;;;;;;;;
2020/12/09 00:32:54;;;;;;;12.6;11.3;;;5;99.9;;;;;;;;;
2020/12/09 00:33:02;;;;;;;12.6;11.3;;;5;99.9;;;;;;;;;
2020/12/09 00:33:09;;;;;;;12.6;11.3;;;5;99.9;;;;;;;;;
2020/12/09 00:33:15;;;;;;;12.6;11.3;;;5;99.9;;;;;;;;;
2020/12/09 00:33:35;;;;;;;12.6;11.3;;;5;99.9;;;;;;;;;
2020/12/09 00:33:45;;;;;;;12.9;11.4;;;5;99.9;;;;;;;;;
2020/12/09 00:33:55;;;;;;;12.9;11.4;;;5;99.9;;;;;;;;;
2020/12/09 00:34:02;;;;;;;12.9;11.4;;;5;99.9;;;;;;;;;
2020/12/09 00:34:06;;;;;;;12.9;11.4;;;5;99.9;;;;;;;;;
2020/12/09 00:34:16;;;;;;;12.9;11.4;;;5;99.9;;;;;;;;;
2020/12/09 00:34:26;;;;;;;12.9;11.4;;;5;99.9;;;;;;;;;
2020/12/09 00:34:41;;;;;;;15.03;12.03;;;5;99.9;;;;;;;;;
2020/12/09 00:34:52;;;;;;;15.03;12.03;;;5;99.9;;;;;;;;;
2020/12/09 00:35:02;;;;;;;15.03;12.03;;;5;99.9;;;;;;;;;
2020/12/09 00:35:07;;;;;;;15.03;12.03;;;5;99.9;;;;;;;;;
2020/12/09 00:35:12;;;;;;;15.03;12.03;;;5;99.9;;;;;;;;;
2020/12/09 00:35:27;;;;;;;15.03;12.03;;;5;99.9;;;;;;;;;
2020/12/09 00:35:48;;;;;;;14.6;11.17;;;5.1;99.9;;;;;;;;;
2020/12/09 00:36:02;;;;;;;14.6;11.17;;;5.1;99.9;;;;;;;;;
2020/12/09 00:36:03;;;;;;;14.6;11.17;;;5.1;99.9;;;;;;;;;
2020/12/09 00:36:08;;;;;;;14.6;11.17;;;5.1;99.9;;;;;;;;;
2020/12/09 00:36:14;;;;;;;14.6;11.17;;;5.1;99.9;;;;;;;;;
2020/12/09 00:36:29;;;;;;;14.6;11.17;;;5.1;99.9;;;;;;;;;
2020/12/09 00:36:39;;;;;;;14.6;11.17;;;5.1;99.9;;;;;;;;;
2020/12/09 00:36:55;;;;;;;16.7;12.23;;;5.1;99.9;;;;;;;;;
2020/12/09 00:37:02;;;;;;;16.7;12.23;;;5.1;99.9;;;;;;;;;
2020/12/09 00:37:05;;;;;;;16.7;12.23;;;5.1;99.9;;;;;;;;;
2020/12/09 00:37:15;;;;;;;16.7;12.23;;;5.1;99.9;;;;;;;;;
2020/12/09 00:37:25;;;;;;;16.7;12.23;;;5.1;99.9;;;;;;;;;
2020/12/09 00:37:41;;;;;;;11.9;10.7;;;5;99.9;;;;;;;;;
2020/12/09 00:38:01;;;;;;;11.9;10.7;;;5;99.9;;;;;;;;;
2020/12/09 00:38:02;;;;;;;11.9;10.7;;;5;99.9;;;;;;;;;
2020/12/09 00:38:16;;;;;;;11.9;10.7;;;5;99.9;;;;;;;;;
2020/12/09 00:38:17;;;;;;;11.9;10.7;;;5;99.9;;;;;;;;;
2020/12/09 00:38:27;;;;;;;11.9;10.7;;;5;99.9;;;;;;;;;
2020/12/09 00:38:42;;;;;;;13.27;11.07;;;5;99.9;;;;;;;;;
2020/12/09 00:38:52;;;;;;;13.27;11.07;;;5;99.9;;;;;;;;;
2020/12/09 00:39:02;;;;;;;13.27;11.07;;;5;99.9;;;;;;;;;
2020/12/09 00:39:08;;;;;;;13.27;11.07;;;5;99.9;;;;;;;;;
2020/12/09 00:39:13;;;;;;;13.27;11.07;;;5;99.9;;;;;;;;;
2020/12/09 00:39:28;;;;;;;13.27;11.07;;;5;99.9;;;;;;;;;
2020/12/09 00:39:38;;;;;;;13.27;11.07;;;5;99.9;;;;;;;;;
2020/12/09 00:39:54;;;;;;;12.1;10.9;;;5;99.9;;;;;;;;;
2020/12/09 00:40:01;;;;;;;12.1;10.9;;;5;99.9;;;;;;;;;
2020/12/09 00:40:14;;;;;;;12.1;10.9;;;5;99.9;;;;;;;;;
2020/12/09 00:40:14;;;;;;;12.1;10.9;;;5;99.9;;;;;;;;;
2020/12/09 00:40:30;;;;;;;12.1;10.9;;;5;99.9;;;;;;;;;
2020/12/09 00:40:43;;;;;;;12.1;10.9;;;5;99.9;;;;;;;;;
2020/12/09 00:40:55;;;;;;;14.27;11.37;;;5;99.9;;;;;;;;;
2020/12/09 00:41:02;;;;;;;14.27;11.37;;;5;99.9;;;;;;;;;
2020/12/09 00:41:05;;;;;;;14.27;11.37;;;5;99.9;;;;;;;;;
2020/12/09 00:41:16;;;;;;;14.27;11.37;;;5;99.9;;;;;;;;;
2020/12/09 00:41:26;;;;;;;14.27;11.37;;;5;99.9;;;;;;;;;
2020/12/09 00:41:41;;;;;;;12.8;11.13;;;5;99.9;;;;;;;;;
2020/12/09 00:41:51;;;;;;;12.8;11.13;;;5;99.9;;;;;;;;;
2020/12/09 00:42:01;;;;;;;12.8;11.13;;;5;99.9;;;;;;;;;
2020/12/09 00:42:07;;;;;;;12.8;11.13;;;5;99.9;;;;;;;;;
2020/12/09 00:42:12;;;;;;;12.8;11.13;;;5;99.9;;;;;;;;;
2020/12/09 00:42:27;;;;;;;12.8;11.13;;;5;99.9;;;;;;;;;
2020/12/09 00:42:43;;;;;;;14.1;11.57;;;5;99.9;;;;;;;;;
2020/12/09 00:42:53;;;;;;;14.1;11.57;;;5;99.9;;;;;;;;;
2020/12/09 00:43:02;;;;;;;14.1;11.57;;;5;99.9;;;;;;;;;
2020/12/09 00:43:08;;;;;;;14.1;11.57;;;5;99.9;;;;;;;;;
2020/12/09 00:43:13;;;;;;;14.1;11.57;;;5;99.9;;;;;;;;;
2020/12/09 00:43:29;;;;;;;14.1;11.57;;;5;99.9;;;;;;;;;
2020/12/09 00:43:39;;;;;;;14.1;11.57;;;5;99.9;;;;;;;;;
2020/12/09 00:43:54;;;;;;;15;11.47;;;4.7;99.9;;;;;;;;;
2020/12/09 00:44:02;;;;;;;15;11.47;;;4.7;99.9;;;;;;;;;
2020/12/09 00:44:05;;;;;;;15;11.47;;;4.7;99.9;;;;;;;;;
2020/12/09 00:44:15;;;;;;;15;11.47;;;4.7;99.9;;;;;;;;;
2020/12/09 00:44:25;;;;;;;15;11.47;;;4.7;99.9;;;;;;;;;
2020/12/09 00:44:40;;;;;;;15;11.47;;;4.7;99.9;;;;;;;;;
2020/12/09 00:44:56;;;;;;;12.97;11.5;;;4.7;99.9;;;;;;;;;
2020/12/09 00:45:02;;;;;;;12.97;11.5;;;4.7;99.9;;;;;;;;;
2020/12/09 00:45:06;;;;;;;12.97;11.5;;;4.7;99.9;;;;;;;;;
2020/12/09 00:45:16;;;;;;;12.97;11.5;;;4.7;99.9;;;;;;;;;
2020/12/09 00:45:27;;;;;;;12.97;11.5;;;4.7;99.9;;;;;;;;;
2020/12/09 00:45:42;;;;;;;12.97;11.5;;;4.7;99.9;;;;;;;;;
2020/12/09 00:45:52;;;;;;;13.67;11.43;;;4.7;99.9;;;;;;;;;
2020/12/09 00:46:02;;;;;;;13.67;11.43;;;4.7;99.9;;;;;;;;;
2020/12/09 00:46:07;;;;;;;13.67;11.43;;;4.7;99.9;;;;;;;;;
2020/12/09 00:46:13;;;;;;;13.67;11.43;;;4.7;99.9;;;;;;;;;
2020/12/09 00:46:28;;;;;;;13.67;11.43;;;4.7;99.9;;;;;;;;;
2020/12/09 00:46:38;;;;;;;13.67;11.43;;;4.7;99.9;;;;;;;;;
2020/12/09 00:46:53;;;;;;;13.5;10.7;;;4.8;99.9;;;;;;;;;
2020/12/09 00:47:01;;;;;;;13.5;10.7;;;4.8;99.9;;;;;;;;;
2020/12/09 00:47:09;;;;;;;13.5;10.7;;;4.8;99.9;;;;;;;;;
2020/12/09 00:47:14;;;;;;;13.5;10.7;;;4.8;99.9;;;;;;;;;
2020/12/09 00:47:29;;;;;;;13.5;10.7;;;4.8;99.9;;;;;;;;;
2020/12/09 00:47:40;;;;;;;13.5;10.7;;;4.8;99.9;;;;;;;;;
2020/12/09 00:47:55;;;;;;;12.33;11.07;;;4.9;99.9;;;;;;;;;
2020/12/09 00:48:02;;;;;;;12.33;11.07;;;4.9;99.9;;;;;;;;;
2020/12/09 00:48:05;;;;;;;12.33;11.07;;;4.9;99.9;;;;;;;;;
2020/12/09 00:48:16;;;;;;;12.33;11.07;;;4.9;99.9;;;;;;;;;
2020/12/09 00:48:26;;;;;;;12.33;11.07;;;4.9;99.9;;;;;;;;;
2020/12/09 00:48:41;;;;;;;12.33;11.07;;;4.9;99.9;;;;;;;;;
2020/12/09 00:48:51;;;;;;;12.2;10.7;;;5.1;99.9;;;;;;;;;
2020/12/09 00:49:02;;;;;;;12.2;10.7;;;5.1;99.9;;;;;;;;;
2020/12/09 00:49:07;;;;;;;12.2;10.7;;;5.1;99.9;;;;;;;;;
2020/12/09 00:49:12;;;;;;;12.2;10.7;;;5.1;99.9;;;;;;;;;
2020/12/09 00:49:27;;;;;;;12.2;10.7;;;5.1;99.9;;;;;;;;;
2020/12/09 00:49:58;;;;;;;12.2;10.7;;;5.1;99.9;;;;;;;;;
2020/12/09 00:50:27;;;;;;;15;11.1;;;5.1;99.9;;;;;;;;;
2020/12/09 00:50:29;;;;;;;15;11.1;;;5.1;99.9;;;;;;;;;
2020/12/09 00:50:29;;;;;;;15;11.1;;;5.1;99.9;;;;;;;;;
2020/12/09 00:50:39;;;;;;;15;11.1;;;5.1;99.9;;;;;;;;;
2020/12/09 00:50:40;;;;;;;15;11.1;;;5.1;99.9;;;;;;;;;
2020/12/09 00:50:54;;;;;;;12;10.7;;;5.1;99.9;;;;;;;;;
2020/12/09 00:50:59;;;;;;;15;11.1;;;5.1;99.9;;;;;;;;;
2020/12/09 00:51:02;;;;;;;12;10.7;;;5.1;99.9;;;;;;;;;
2020/12/09 00:51:04;;;;;;;12;10.7;;;5.1;99.9;;;;;;;;;
2020/12/09 00:51:15;;;;;;;12;10.7;;;5.1;99.9;;;;;;;;;
2020/12/09 00:51:25;;;;;;;12;10.7;;;5.1;99.9;;;;;;;;;
2020/12/09 00:51:40;;;;;;;12;10.7;;;5.1;99.9;;;;;;;;;
2020/12/09 00:52:01;;;;;;;12.93;11;;;5.1;99.9;;;;;;;;;
2020/12/09 00:52:11;;;;;;;12.93;11;;;5.1;99.9;;;;;;;;;
2020/12/09 00:52:42;;;;;;;12.93;11;;;5.1;99.9;;;;;;;;;
2020/12/09 00:52:42;;;;;;;12.93;11;;;5.1;99.9;;;;;;;;;
2020/12/09 00:52:42;;;;;;;12.93;11;;;5.1;99.9;;;;;;;;;
2020/12/09 00:52:52;;;;;;;12.17;10.97;;;5.1;99.9;;;;;;;;;
2020/12/09 00:53:02;;;;;;;12.17;10.97;;;5.1;99.9;;;;;;;;;
2020/12/09 00:53:07;;;;;;;12.17;10.97;;;5.1;99.9;;;;;;;;;
2020/12/09 00:53:12;;;;;;;12.17;10.97;;;5.1;99.9;;;;;;;;;
2020/12/09 00:53:12;;;;;;;12.17;10.97;;;5.1;99.9;;;;;;;;;
2020/12/09 00:53:28;;;;;;;12.17;10.97;;;5.1;99.9;;;;;;;;;
2020/12/09 00:53:38;;;;;;;12.17;10.97;;;5.1;99.9;;;;;;;;;
2020/12/09 00:53:53;;;;;;;14.3;11.17;;;5;99.9;;;;;;;;;
2020/12/09 00:54:02;;;;;;;14.3;11.17;;;5;99.9;;;;;;;;;
2020/12/09 00:54:14;;;;;;;14.3;11.17;;;5;99.9;;;;;;;;;
2020/12/09 00:54:24;;;;;;;14.3;11.17;;;5;99.9;;;;;;;;;
2020/12/09 00:54:55;;;;;;;14.73;11.23;;;5;99.9;;;;;;;;;
2020/12/09 00:54:55;;;;;;;14.73;11.23;;;5;99.9;;;;;;;;;
2020/12/09 00:54:55;;;;;;;14.73;11.23;;;5;99.9;;;;;;;;;
2020/12/09 00:55:02;;;;;;;14.73;11.23;;;5;99.9;;;;;;;;;
2020/12/09 00:55:05;;;;;;;14.73;11.23;;;5;99.9;;;;;;;;;
2020/12/09 00:55:15;;;;;;;14.73;11.23;;;5;99.9;;;;;;;;;
2020/12/09 00:55:26;;;;;;;14.73;11.23;;;5;99.9;;;;;;;;;
2020/12/09 00:55:41;;;;;;;14.73;11.23;;;5;99.9;;;;;;;;;
2020/12/09 00:55:51;;;;;;;12.43;11.07;;;5;99.9;;;;;;;;;
2020/12/09 00:56:02;;;;;;;12.43;11.07;;;5;99.9;;;;;;;;;
2020/12/09 00:56:07;;;;;;;12.43;11.07;;;5;99.9;;;;;;;;;
2020/12/09 00:56:17;;;;;;;12.43;11.07;;;5;99.9;;;;;;;;;
2020/12/09 00:56:27;;;;;;;12.43;11.07;;;5;99.9;;;;;;;;;
2020/12/09 00:57:02;;;;;;;11.9;10.63;;;5.1;99.9;;;;;;;;;
2020/12/09 00:57:08;;;;;;;11.9;10.63;;;5.1;99.9;;;;;;;;;
2020/12/09 00:57:08;;;;;;;11.9;10.63;;;5.1;99.9;;;;;;;;;
2020/12/09 00:57:08;;;;;;;11.9;10.63;;;5.1;99.9;;;;;;;;;
2020/12/09 00:57:13;;;;;;;11.9;10.63;;;5.1;99.9;;;;;;;;;
2020/12/09 00:57:28;;;;;;;11.9;10.63;;;5.1;99.9;;;;;;;;;
2020/12/09 00:57:39;;;;;;;11.9;10.63;;;5.1;99.9;;;;;;;;;
2020/12/09 00:57:54;;;;;;;12.43;11.13;;;5.1;99.9;;;;;;;;;
2020/12/09 00:58:02;;;;;;;12.43;11.13;;;5.1;99.9;;;;;;;;;
2020/12/09 00:58:04;;;;;;;12.43;11.13;;;5.1;99.9;;;;;;;;;
2020/12/09 00:58:20;;;;;;;12.43;11.13;;;5.1;99.9;;;;;;;;;
2020/12/09 00:58:30;;;;;;;12.43;11.13;;;5.1;99.9;;;;;;;;;
2020/12/09 00:58:40;;;;;;;12.43;11.13;;;5.1;99.9;;;;;;;;;
2020/12/09 00:59:03;;;;;;;13.67;10.77;;;5.2;99.9;;;;;;;;;
2020/12/09 00:59:16;;;;;;;13.67;10.77;;;5.2;99.9;;;;;;;;;
2020/12/09 00:59:21;;;;;;;13.67;10.77;;;5.2;99.9;;;;;;;;;
2020/12/09 00:59:21;;;;;;;13.67;10.77;;;5.2;99.9;;;;;;;;;
2020/12/09 00:59:26;;;;;;;13.67;10.77;;;5.2;99.9;;;;;;;;;
2020/12/09 00:59:42;;;;;;;13.67;10.77;;;5.2;99.9;;;;;;;;;
2020/12/09 00:59:52;;;;;;;16.53;10.77;;;5.3;99.9;;;;;;;;;
2020/12/09 01:00:02;;;;;;;16.53;10.77;;;5.3;99.9;;;;;;;;;
2020/12/09 01:00:07;;;;;;;16.53;10.77;;;5.3;99.9;;;;;;;;;
2020/12/09 01:00:12;;;;;;;16.53;10.77;;;5.3;99.9;;;;;;;;;
2020/12/09 01:00:33;;;;;;;16.53;10.77;;;5.3;99.9;;;;;;;;;
2020/12/09 01:00:43;;;;;;;16.53;10.77;;;5.3;99.9;;;;;;;;;
2020/12/09 01:00:53;;;;;;;11.77;10.13;;;5.3;99.9;;;;;;;;;
2020/12/09 01:01:02;;;;;;;11.77;10.13;;;5.3;99.9;;;;;;;;;
2020/12/09 01:01:14;;;;;;;11.77;10.13;;;5.3;99.9;;;;;;;;;
2020/12/09 01:01:29;;;;;;;11.77;10.13;;;5.3;99.9;;;;;;;;;
2020/12/09 01:01:34;;;;;;;11.77;10.13;;;5.3;99.9;;;;;;;;;
2020/12/09 01:01:39;;;;;;;11.77;10.13;;;5.3;99.9;;;;;;;;;
2020/12/09 01:01:55;;;;;;;12.53;10.37;;;5.3;99.9;;;;;;;;;
2020/12/09 01:02:02;;;;;;;12.53;10.37;;;5.3;99.9;;;;;;;;;
2020/12/09 01:02:05;;;;;;;12.53;10.37;;;5.3;99.9;;;;;;;;;
2020/12/09 01:02:15;;;;;;;12.53;10.37;;;5.3;99.9;;;;;;;;;
2020/12/09 01:02:25;;;;;;;12.53;10.37;;;5.3;99.9;;;;;;;;;
2020/12/09 01:02:46;;;;;;;12.53;10.37;;;5.3;99.9;;;;;;;;;
2020/12/09 01:02:56;;;;;;;13.93;11.3;;;5.3;99.9;;;;;;;;;
2020/12/09 01:03:02;;;;;;;13.93;11.3;;;5.3;99.9;;;;;;;;;
2020/12/09 01:03:06;;;;;;;13.93;11.3;;;5.3;99.9;;;;;;;;;
2020/12/09 01:03:17;;;;;;;13.93;11.3;;;5.3;99.9;;;;;;;;;
2020/12/09 01:03:27;;;;;;;13.93;11.3;;;5.3;99.9;;;;;;;;;
2020/12/09 01:03:42;;;;;;;13.93;11.3;;;5.3;99.9;;;;;;;;;
2020/12/09 01:03:53;;;;;;;12.03;10.4;;;5.4;99.9;;;;;;;;;
2020/12/09 01:04:02;;;;;;;12.03;10.4;;;5.4;99.9;;;;;;;;;
2020/12/09 01:04:08;;;;;;;12.03;10.4;;;5.4;99.9;;;;;;;;;
2020/12/09 01:04:13;;;;;;;12.03;10.4;;;5.4;99.9;;;;;;;;;
2020/12/09 01:04:28;;;;;;;12.03;10.4;;;5.4;99.9;;;;;;;;;
2020/12/09 01:04:38;;;;;;;12.03;10.4;;;5.4;99.9;;;;;;;;;
2020/12/09 01:04:59;;;;;;;16.03;10.37;;;5.3;99.9;;;;;;;;;
2020/12/09 01:05:02;;;;;;;16.03;10.37;;;5.3;99.9;;;;;;;;;
2020/12/09 01:05:09;;;;;;;16.03;10.37;;;5.3;99.9;;;;;;;;;
2020/12/09 01:05:14;;;;;;;16.03;10.37;;;5.3;99.9;;;;;;;;;
2020/12/09 01:05:30;;;;;;;16.03;10.37;;;5.3;99.9;;;;;;;;;
2020/12/09 01:05:40;;;;;;;16.03;10.37;;;5.3;99.9;;;;;;;;;
2020/12/09 01:05:55;;;;;;;12.53;10.47;;;5.2;99.9;;;;;;;;;
2020/12/09 01:06:02;;;;;;;12.53;10.47;;;5.2;99.9;;;;;;;;;
2020/12/09 01:06:06;;;;;;;12.53;10.47;;;5.2;99.9;;;;;;;;;
2020/12/09 01:06:16;;;;;;;12.53;10.47;;;5.2;99.9;;;;;;;;;
2020/12/09 01:06:26;;;;;;;12.53;10.47;;;5.2;99.9;;;;;;;;;
2020/12/09 01:06:41;;;;;;;12.53;10.47;;;5.2;99.9;;;;;;;;;
2020/12/09 01:06:52;;;;;;;12.37;11.07;;;5.1;99.9;;;;;;;;;
2020/12/09 01:07:01;;;;;;;12.37;11.07;;;5.1;99.9;;;;;;;;;
2020/12/09 01:07:12;;;;;;;12.37;11.07;;;5.1;99.9;;;;;;;;;
2020/12/09 01:07:17;;;;;;;12.37;11.07;;;5.1;99.9;;;;;;;;;
2020/12/09 01:07:27;;;;;;;12.37;11.07;;;5.1;99.9;;;;;;;;;
2020/12/09 01:07:43;;;;;;;12.37;11.07;;;5.1;99.9;;;;;;;;;
2020/12/09 01:07:53;;;;;;;12.97;11.3;;;5.1;99.9;;;;;;;;;
2020/12/09 01:08:02;;;;;;;12.97;11.3;;;5.1;99.9;;;;;;;;;
2020/12/09 01:08:08;;;;;;;12.97;11.3;;;5.1;99.9;;;;;;;;;
2020/12/09 01:08:14;;;;;;;12.97;11.3;;;5.1;99.9;;;;;;;;;
2020/12/09 01:08:29;;;;;;;12.97;11.3;;;5.1;99.9;;;;;;;;;
2020/12/09 01:08:39;;;;;;;12.97;11.3;;;5.1;99.9;;;;;;;;;
2020/12/09 01:08:55;;;;;;;13.4;11.3;;;5;99.9;;;;;;;;;
2020/12/09 01:09:02;;;;;;;13.4;11.3;;;5;99.9;;;;;;;;;
2020/12/09 01:09:05;;;;;;;13.4;11.3;;;5;99.9;;;;;;;;;
2020/12/09 01:09:15;;;;;;;13.4;11.3;;;5;99.9;;;;;;;;;
2020/12/09 01:09:30;;;;;;;13.4;11.3;;;5;99.9;;;;;;;;;
2020/12/09 01:09:41;;;;;;;13.4;11.3;;;5;99.9;;;;;;;;;
2020/12/09 01:09:56;;;;;;;13.1;10.37;;;5;99.9;;;;;;;;;
2020/12/09 01:10:02;;;;;;;13.1;10.37;;;5;99.9;;;;;;;;;
2020/12/09 01:10:06;;;;;;;13.1;10.37;;;5;99.9;;;;;;;;;
2020/12/09 01:10:16;;;;;;;13.1;10.37;;;5;99.9;;;;;;;;;
2020/12/09 01:10:27;;;;;;;13.1;10.37;;;5;99.9;;;;;;;;;
2020/12/09 01:10:42;;;;;;;13.1;10.37;;;5;99.9;;;;;;;;;
2020/12/09 01:10:52;;;;;;;13.83;10.67;;;5.1;99.9;;;;;;;;;
2020/12/09 01:11:02;;;;;;;13.83;10.67;;;5.1;99.9;;;;;;;;;
2020/12/09 01:11:08;;;;;;;13.83;10.67;;;5.1;99.9;;;;;;;;;
2020/12/09 01:11:18;;;;;;;13.83;10.67;;;5.1;99.9;;;;;;;;;
2020/12/09 01:11:28;;;;;;;13.83;10.67;;;5.1;99.9;;;;;;;;;
2020/12/09 01:11:43;;;;;;;13.83;10.67;;;5.1;99.9;;;;;;;;;
2020/12/09 01:11:54;;;;;;;12;9.83;;;5.1;99.9;;;;;;;;;
2020/12/09 01:12:02;;;;;;;12;9.83;;;5.1;99.9;;;;;;;;;
2020/12/09 01:12:09;;;;;;;12;9.83;;;5.1;99.9;;;;;;;;;
2020/12/09 01:12:14;;;;;;;12;9.83;;;5.1;99.9;;;;;;;;;
2020/12/09 01:12:30;;;;;;;12;9.83;;;5.1;99.9;;;;;;;;;
2020/12/09 01:12:40;;;;;;;12;9.83;;;5.1;99.9;;;;;;;;;
2020/12/09 01:12:55;;;;;;;11.17;9.6;;;5.1;99.9;;;;;;;;;
2020/12/09 01:13:02;;;;;;;11.17;9.6;;;5.1;99.9;;;;;;;;;
2020/12/09 01:13:05;;;;;;;11.17;9.6;;;5.1;99.9;;;;;;;;;
2020/12/09 01:13:16;;;;;;;11.17;9.6;;;5.1;99.9;;;;;;;;;
2020/12/09 01:13:31;;;;;;;11.17;9.6;;;5.1;99.9;;;;;;;;;
2020/12/09 01:13:44;;;;;;;11.17;9.6;;;5.1;99.9;;;;;;;;;
2020/12/09 01:13:57;;;;;;;13.3;10.87;;;5.1;99.9;;;;;;;;;
2020/12/09 01:14:01;;;;;;;13.3;10.87;;;5.1;99.9;;;;;;;;;
2020/12/09 01:14:07;;;;;;;13.3;10.87;;;5.1;99.9;;;;;;;;;
2020/12/09 01:14:12;;;;;;;13.3;10.87;;;5.1;99.9;;;;;;;;;
2020/12/09 01:14:27;;;;;;;13.3;10.87;;;5.1;99.9;;;;;;;;;
2020/12/09 01:14:43;;;;;;;13.3;10.87;;;5.1;99.9;;;;;;;;;
2020/12/09 01:14:53;;;;;;;12.5;10.8;;;5.2;99.9;;;;;;;;;
2020/12/09 01:15:02;;;;;;;12.5;10.8;;;5.2;99.9;;;;;;;;;
2020/12/09 01:15:08;;;;;;;12.5;10.8;;;5.2;99.9;;;;;;;;;
2020/12/09 01:15:13;;;;;;;12.5;10.8;;;5.2;99.9;;;;;;;;;
2020/12/09 01:15:29;;;;;;;12.5;10.8;;;5.2;99.9;;;;;;;;;
2020/12/09 01:15:44;;;;;;;12.5;10.8;;;5.2;99.9;;;;;;;;;
2020/12/09 01:15:54;;;;;;;12.13;10.67;;;5.2;99.9;;;;;;;;;
2020/12/09 01:16:02;;;;;;;12.13;10.67;;;5.2;99.9;;;;;;;;;
2020/12/09 01:16:10;;;;;;;12.13;10.67;;;5.2;99.9;;;;;;;;;
2020/12/09 01:16:15;;;;;;;12.13;10.67;;;5.2;99.9;;;;;;;;;